createdAt,value
2019-02-05T00:01:11.346Z,6.53
2019-02-05T00:06:30.230Z,5.83
2019-02-05T00:11:48.846Z,5.77
2019-02-05T00:17:07.476Z,4.23
2019-02-05T00:22:26.273Z,6.37
2019-02-05T00:27:44.877Z,5.73
2019-02-05T00:33:03.498Z,6.83
2019-02-05T00:38:22.032Z,5.50
2019-02-05T00:43:40.574Z,6.67
2019-02-05T00:48:59.416Z,6.43
2019-02-05T00:54:17.980Z,6.90
2019-02-05T00:59:38.910Z,5.90
2019-02-05T01:04:57.533Z,6.67
2019-02-05T01:10:16.539Z,6.55
2019-02-05T01:15:35.175Z,6.70
2019-02-05T01:20:53.875Z,7.00
2019-02-05T01:26:12.502Z,6.80
2019-02-05T01:31:31.049Z,7.20
2019-02-05T01:36:49.607Z,5.97
2019-02-05T01:42:08.518Z,7.27
2019-02-05T01:47:28.569Z,7.03
2019-02-05T01:52:47.188Z,6.20
2019-02-05T01:58:05.733Z,7.67
2019-02-05T02:03:24.299Z,7.47
2019-02-05T02:08:43.201Z,7.15
2019-02-05T02:14:02.387Z,8.87
2019-02-05T02:19:21.009Z,7.13
2019-02-05T02:24:39.799Z,9.60
2019-02-05T02:29:58.820Z,7.87
2019-02-05T02:35:17.449Z,9.20
2019-02-05T02:40:36.066Z,8.27
2019-02-05T02:45:54.620Z,8.40
2019-02-05T02:51:13.237Z,7.63
2019-02-05T02:56:32.261Z,7.92
2019-02-05T03:01:50.830Z,10.33
2019-02-05T03:07:09.841Z,9.97
2019-02-05T03:12:30.780Z,9.80
2019-02-05T03:17:49.500Z,9.57
2019-02-05T03:23:08.117Z,9.23
2019-02-05T03:28:26.676Z,9.80
2019-02-05T03:33:45.567Z,10.20
2019-02-05T03:39:06.181Z,10.27
2019-02-05T03:44:24.732Z,10.00
2019-02-05T03:49:43.520Z,7.50
2019-02-05T03:55:14.017Z,9.00
2019-02-05T04:00:38.416Z,10.00
2019-02-05T04:06:02.911Z,10.30
2019-02-05T04:11:39.437Z,9.50
2019-02-05T04:17:25.277Z,11.07
2019-02-05T04:22:52.574Z,10.83
2019-02-05T04:28:17.031Z,9.90
2019-02-05T04:34:00.407Z,10.37
2019-02-05T04:39:49.031Z,10.50
2019-02-05T04:45:10.561Z,6.97
2019-02-05T04:50:51.007Z,11.47
2019-02-05T04:56:18.480Z,12.27
2019-02-05T05:01:51.865Z,10.57
2019-02-05T05:07:28.729Z,9.53
2019-02-05T05:12:47.440Z,10.17
2019-02-05T05:18:06.079Z,10.50
2019-02-05T05:23:24.918Z,8.50
2019-02-05T05:28:44.150Z,10.53
2019-02-05T05:34:03.015Z,12.30
2019-02-05T05:39:21.627Z,11.50
2019-02-05T05:44:40.243Z,14.07
2019-02-05T05:49:59.676Z,12.30
2019-02-05T05:55:18.304Z,11.73
2019-02-05T06:00:36.952Z,12.30
2019-02-05T06:05:57.209Z,13.07
2019-02-05T06:11:24.551Z,14.10
2019-02-05T06:16:43.253Z,13.70
2019-02-05T06:22:01.817Z,11.77
2019-02-05T06:27:20.449Z,10.10
2019-02-05T06:32:39.428Z,13.80
2019-02-05T06:37:58.259Z,15.27
2019-02-05T06:43:16.813Z,13.75
2019-02-05T06:48:35.353Z,14.10
2019-02-05T06:53:53.822Z,8.83
2019-02-05T06:59:12.628Z,9.83
2019-02-05T07:04:31.313Z,15.00
2019-02-05T07:09:49.930Z,16.60
2019-02-05T07:15:09.961Z,16.20
2019-02-05T07:20:28.657Z,16.53
2019-02-05T07:25:47.206Z,9.93
2019-02-05T07:31:05.815Z,16.63
2019-02-05T07:36:24.461Z,15.10
2019-02-05T07:41:43.018Z,18.23
2019-02-05T07:47:01.631Z,16.80
2019-02-05T07:52:20.269Z,17.00
2019-02-05T07:57:38.888Z,20.17
2019-02-05T08:02:57.685Z,18.93
2019-02-05T08:08:16.307Z,17.87
2019-02-05T08:13:34.926Z,17.77
2019-02-05T08:18:53.392Z,17.30
2019-02-05T08:24:12.012Z,18.48
2019-02-05T08:29:30.904Z,17.53
2019-02-05T08:34:49.558Z,18.67
2019-02-05T08:40:14.175Z,18.17
2019-02-05T08:45:34.873Z,16.80
2019-02-05T08:50:53.510Z,18.00
2019-02-05T08:56:12.142Z,18.53
2019-02-05T09:01:30.759Z,17.60
2019-02-05T09:06:49.320Z,15.97
2019-02-05T09:12:07.945Z,17.07
2019-02-05T09:17:26.989Z,16.87
2019-02-05T09:22:45.632Z,16.00
2019-02-05T09:28:04.561Z,17.10
2019-02-05T09:33:24.153Z,17.47
2019-02-05T09:38:42.778Z,15.93
2019-02-05T09:44:01.415Z,18.00
2019-02-05T09:49:19.972Z,16.37
2019-02-05T09:54:38.601Z,16.00
2019-02-05T09:59:57.535Z,16.83
2019-02-05T10:05:19.171Z,17.77
2019-02-05T10:10:37.756Z,15.60
2019-02-05T10:15:56.381Z,16.87
2019-02-05T10:21:14.985Z,15.30
2019-02-05T10:26:33.535Z,14.53
2019-02-05T10:31:52.087Z,14.17
2019-02-05T10:37:10.780Z,14.07
2019-02-05T10:42:29.694Z,15.57
2019-02-05T10:47:48.346Z,15.77
2019-02-05T10:53:06.988Z,14.63
2019-02-05T10:58:25.556Z,13.87
2019-02-05T11:03:51.087Z,15.07
2019-02-05T11:09:10.015Z,11.60
2019-02-05T11:14:28.624Z,16.07
2019-02-05T11:19:47.531Z,16.40
2019-02-05T11:25:08.063Z,14.17
2019-02-05T11:30:38.495Z,14.50
2019-02-05T11:35:57.131Z,15.67
2019-02-05T11:41:15.887Z,14.70
2019-02-05T11:46:34.513Z,14.43
2019-02-05T11:51:53.151Z,14.83
2019-02-05T11:57:11.699Z,15.93
2019-02-05T12:02:30.373Z,17.13
2019-02-05T12:07:48.921Z,15.70
2019-02-05T12:13:07.853Z,18.70
2019-02-05T12:18:26.469Z,17.80
2019-02-05T12:23:45.121Z,16.83
2019-02-05T12:29:03.716Z,18.30
2019-02-05T12:34:22.488Z,17.90
2019-02-05T12:39:41.144Z,17.57
2019-02-05T12:44:59.790Z,16.90
2019-02-05T12:50:20.707Z,17.40
2019-02-05T12:55:39.327Z,18.20
2019-02-05T13:00:59.564Z,18.43
2019-02-05T13:06:25.259Z,18.93
2019-02-05T13:11:44.131Z,18.60
2019-02-05T13:17:02.663Z,19.13
2019-02-05T13:22:21.507Z,18.43
2019-02-05T13:27:40.041Z,19.10
2019-02-05T13:32:58.796Z,18.47
2019-02-05T13:38:17.428Z,18.73
2019-02-05T13:43:36.133Z,18.87
2019-02-05T13:48:54.701Z,18.37
2019-02-05T13:54:13.347Z,15.90
2019-02-05T13:59:34.245Z,18.50
2019-02-05T14:04:52.906Z,18.83
2019-02-05T14:10:17.860Z,18.62
2019-02-05T14:15:38.798Z,18.73
2019-02-05T14:20:57.697Z,19.37
2019-02-05T14:26:17.088Z,17.97
2019-02-05T14:31:35.718Z,15.83
2019-02-05T14:36:55.321Z,18.10
2019-02-05T14:42:13.877Z,17.83
2019-02-05T14:47:32.429Z,18.53
2019-02-05T14:53:01.126Z,18.63
2019-02-05T14:58:19.779Z,18.70
2019-02-05T15:03:38.327Z,17.53
2019-02-05T15:08:56.893Z,17.97
2019-02-05T15:14:15.589Z,16.87
2019-02-05T15:19:34.490Z,17.60
2019-02-05T15:24:52.973Z,16.90
2019-02-05T15:30:17.390Z,18.65
2019-02-05T15:35:36.589Z,17.87
2019-02-05T15:40:57.019Z,18.17
2019-02-05T15:46:15.648Z,19.20
2019-02-05T15:51:34.332Z,18.87
2019-02-05T15:56:52.890Z,19.10
2019-02-05T16:02:11.625Z,18.77
2019-02-05T16:07:30.267Z,17.33
2019-02-05T16:12:48.819Z,17.27
2019-02-05T16:18:08.125Z,17.85
2019-02-05T16:23:26.704Z,16.87
2019-02-05T16:28:45.267Z,18.07
2019-02-05T16:34:03.831Z,18.02
2019-02-05T16:39:22.483Z,19.90
2019-02-05T16:44:41.286Z,19.47
2019-02-05T16:50:00.655Z,18.13
2019-02-05T16:55:20.953Z,19.77
2019-02-05T17:00:49.596Z,19.00
2019-02-05T17:06:07.818Z,19.25
2019-02-05T17:11:26.553Z,20.62
2019-02-05T17:16:45.311Z,21.07
2019-02-05T17:22:04.039Z,21.50
2019-02-05T17:27:22.610Z,21.47
2019-02-05T17:32:41.232Z,20.87
2019-02-05T17:37:59.985Z,22.07
2019-02-05T17:43:18.562Z,21.07
2019-02-05T17:48:37.285Z,20.77
2019-02-05T17:53:55.909Z,22.05
2019-02-05T17:59:15.211Z,21.30
2019-02-05T18:04:33.796Z,21.63
2019-02-05T18:09:52.348Z,22.13
2019-02-05T18:15:16.826Z,21.70
2019-02-05T18:20:35.446Z,21.27
2019-02-05T18:25:54.024Z,20.63
2019-02-05T18:31:35.438Z,21.12
2019-02-05T18:36:54.059Z,20.17
2019-02-05T18:42:12.628Z,19.33
2019-02-05T18:47:31.491Z,19.77
2019-02-05T18:52:50.047Z,20.67
2019-02-05T18:58:10.457Z,19.80
2019-02-05T19:03:29.455Z,19.90
2019-02-05T19:08:48.084Z,19.03
2019-02-05T19:14:06.769Z,20.40
2019-02-05T19:19:25.406Z,19.50
2019-02-05T19:24:45.582Z,21.43
2019-02-05T19:30:10.131Z,20.47
2019-02-05T19:35:28.674Z,20.20
2019-02-05T19:40:57.076Z,17.30
2019-02-05T19:46:25.644Z,19.47
2019-02-05T19:51:44.348Z,19.23
2019-02-05T19:57:03.171Z,18.43
2019-02-05T20:02:21.798Z,18.53
2019-02-05T20:07:40.348Z,17.37
2019-02-05T20:12:59.155Z,20.40
2019-02-05T20:18:20.545Z,20.25
2019-02-05T20:23:39.177Z,18.97
2019-02-05T20:28:57.793Z,20.73
2019-02-05T20:34:21.913Z,19.43
2019-02-05T20:39:54.679Z,18.73
2019-02-05T20:50:30.956Z,19.03
2019-02-05T20:56:00.090Z,18.47
2019-02-05T21:01:18.761Z,17.83
2019-02-05T21:06:38.907Z,19.53
2019-02-05T21:11:59.218Z,19.37
2019-02-05T21:17:25.765Z,17.07
2019-02-05T21:22:44.410Z,18.83
2019-02-05T21:28:03.045Z,19.90
2019-02-05T21:33:23.166Z,23.27
2019-02-05T21:38:41.780Z,23.20
2019-02-05T21:44:00.288Z,21.30
2019-02-05T21:49:18.905Z,16.77
2019-02-05T21:54:38.604Z,22.07
2019-02-05T21:59:57.534Z,16.90
2019-02-05T22:05:16.679Z,16.87
2019-02-05T22:10:35.387Z,15.73
2019-02-05T22:15:54.011Z,16.13
2019-02-05T22:21:13.655Z,16.90
2019-02-05T22:26:32.697Z,15.20
2019-02-05T22:31:51.617Z,14.77
2019-02-05T22:37:10.512Z,13.37
2019-02-05T22:42:30.066Z,14.97
2019-02-05T22:47:49.205Z,17.13
2019-02-05T22:53:10.007Z,13.60
2019-02-05T22:58:28.631Z,14.07
2019-02-05T23:03:50.416Z,14.70
2019-02-05T23:09:17.960Z,15.40
2019-02-05T23:14:36.586Z,15.70
2019-02-05T23:19:55.391Z,12.30
2019-02-05T23:25:14.009Z,11.20
2019-02-05T23:30:32.636Z,10.37
2019-02-05T23:35:52.071Z,8.70
2019-02-05T23:41:10.691Z,8.90
2019-02-05T23:46:29.255Z,8.50
2019-02-05T23:51:47.884Z,8.27
2019-02-05T23:57:06.594Z,7.83
